createdAt,value
2024-02-16T00:04:35.054Z,10.6
2024-02-16T00:11:18.057Z,10.6
2024-02-16T00:14:58.126Z,10.6
2024-02-16T00:19:55.482Z,10.6
2024-02-16T00:25:46.175Z,10.5
2024-02-16T00:30:18.611Z,10.5
2024-02-16T00:36:36.100Z,10.4
2024-02-16T00:40:59.351Z,10.5
2024-02-16T00:46:15.771Z,10.4
2024-02-16T00:51:22.274Z,10.4
2024-02-16T00:56:42.707Z,10.4
2024-02-16T01:01:35.012Z,10.4
2024-02-16T01:06:41.412Z,10.4
2024-02-16T01:11:37.754Z,10.4
2024-02-16T01:16:54.153Z,10.4
2024-02-16T01:22:00.518Z,10.4
2024-02-16T01:27:06.947Z,10.4
2024-02-16T01:32:17.336Z,10.4
2024-02-16T01:37:19.668Z,10.4
2024-02-16T01:42:16.185Z,10.4
2024-02-16T01:47:32.872Z,10.4
2024-02-16T01:53:00.819Z,10.4
2024-02-16T01:57:47.443Z,10.4
2024-02-16T02:02:53.980Z,10.4
2024-02-16T02:08:00.314Z,10.4
2024-02-16T02:13:31.564Z,10.4
2024-02-16T02:18:15.293Z,10.3
2024-02-16T02:23:21.461Z,10.3
2024-02-16T02:29:08.940Z,10.3
2024-02-16T02:34:16.480Z,10.3
2024-02-16T02:39:12.686Z,10.2
2024-02-16T02:44:29.077Z,10.2
2024-02-16T02:49:39.143Z,10.2
2024-02-16T02:54:45.668Z,10.2
2024-02-16T02:59:52.252Z,10.2
2024-02-16T03:05:00.844Z,10.2
2024-02-16T03:10:27.291Z,10.1
2024-02-16T03:15:13.855Z,10.1
2024-02-16T03:21:09.358Z,10.1
2024-02-16T03:26:16.639Z,10.1
2024-02-16T03:31:23.084Z,10.2
2024-02-16T03:36:29.593Z,10.1
2024-02-16T03:51:47.140Z,10.1
2024-02-16T03:56:54.545Z,10.1
2024-02-16T04:02:00.904Z,10.1
2024-02-16T04:17:10.040Z,10.0
2024-02-16T04:22:26.566Z,10.0
2024-02-16T04:27:33.072Z,10.0
2024-02-16T04:32:29.445Z,10.0
2024-02-16T04:37:35.859Z,10.0
2024-02-16T04:42:52.279Z,9.9
2024-02-16T04:48:00.559Z,9.9
2024-02-16T04:53:06.882Z,9.9
2024-02-16T04:58:13.325Z,9.9
2024-02-16T05:03:19.863Z,9.9
2024-02-16T05:08:26.071Z,9.9
2024-02-16T05:13:32.471Z,9.9
2024-02-16T05:18:39.139Z,9.8
2024-02-16T05:23:45.536Z,9.8
2024-02-16T05:28:51.972Z,9.8
2024-02-16T05:33:58.632Z,9.8
2024-02-16T05:39:04.915Z,9.8
2024-02-16T05:44:15.237Z,9.8
2024-02-16T05:49:17.815Z,9.8
2024-02-16T05:54:28.100Z,9.8
2024-02-16T05:59:30.440Z,9.8
2024-02-16T06:04:36.950Z,9.8
2024-02-16T06:09:43.454Z,9.8
2024-02-16T06:14:49.742Z,9.8
2024-02-16T06:19:57.993Z,9.8
2024-02-16T06:25:29.076Z,9.8
2024-02-16T06:30:36.847Z,9.8
2024-02-16T06:36:24.658Z,9.8
2024-02-16T06:41:48.169Z,9.8
2024-02-16T06:46:14.415Z,9.8
2024-02-16T06:51:55.391Z,9.8
2024-02-16T06:56:32.226Z,9.8
2024-02-16T07:01:35.649Z,9.9
2024-02-16T07:06:42.140Z,9.9
2024-02-16T07:11:51.300Z,10.0
2024-02-16T07:22:00.190Z,10.1
2024-02-16T07:27:06.881Z,10.1
2024-02-16T07:32:14.330Z,10.2
2024-02-16T07:37:10.670Z,10.3
2024-02-16T07:42:53.121Z,10.4
2024-02-16T07:47:55.650Z,10.4
2024-02-16T07:52:48.293Z,10.5
2024-02-16T08:05:29.785Z,10.8
2024-02-16T08:10:37.052Z,10.8
2024-02-16T08:15:43.477Z,10.9
2024-02-16T08:20:49.795Z,11.0
2024-02-16T08:25:46.250Z,11.1
2024-02-16T08:31:02.718Z,11.1
2024-02-16T08:36:09.186Z,11.2
2024-02-16T08:42:12.984Z,11.5
2024-02-16T08:47:51.716Z,11.5
2024-02-16T08:52:26.616Z,11.7
2024-02-16T08:58:06.764Z,11.8
2024-02-16T09:04:34.960Z,11.9
2024-02-16T09:07:47.041Z,12.0
2024-02-16T09:13:25.433Z,12.1
2024-02-16T09:17:49.872Z,12.2
2024-02-16T09:22:56.225Z,12.3
2024-02-16T09:33:19.265Z,12.4
2024-02-16T09:38:14.497Z,12.5
2024-02-16T09:43:55.979Z,12.5
2024-02-16T09:48:38.485Z,12.6
2024-02-16T09:54:36.980Z,12.6
2024-02-16T10:00:11.497Z,12.8
2024-02-16T10:05:18.978Z,12.8
2024-02-16T10:10:25.356Z,12.9
2024-02-16T10:15:31.754Z,12.9
2024-02-16T10:25:44.632Z,13.0
2024-02-16T10:31:05.040Z,13.1
2024-02-16T10:36:01.675Z,13.1
2024-02-16T10:40:53.770Z,13.1
2024-02-16T10:46:12.379Z,13.2
2024-02-16T10:51:16.685Z,13.1
2024-02-16T10:56:22.884Z,13.2
2024-02-16T11:01:29.307Z,13.2
2024-02-16T11:06:35.734Z,13.2
2024-02-16T11:11:41.996Z,13.2
2024-02-16T11:19:09.220Z,13.4
2024-02-16T11:24:16.688Z,13.4
2024-02-16T11:34:32.613Z,13.6
2024-02-16T11:41:24.382Z,13.6
2024-02-16T11:47:26.918Z,13.7
2024-02-16T11:50:13.625Z,13.7
2024-02-16T12:05:49.649Z,13.8
2024-02-16T12:16:39.478Z,13.8
2024-02-16T12:21:45.902Z,13.8
2024-02-16T12:27:12.369Z,13.8
2024-02-16T12:38:35.371Z,13.8
2024-02-16T12:49:13.340Z,13.8
2024-02-16T12:54:19.694Z,13.7
2024-02-16T12:59:01.954Z,13.7
2024-02-16T13:04:08.384Z,13.6
2024-02-16T13:09:48.835Z,13.5
2024-02-16T13:14:21.062Z,13.5
2024-02-16T13:19:27.637Z,13.5
2024-02-16T13:24:32.973Z,13.4
2024-02-16T13:30:04.453Z,13.3
2024-02-16T13:34:45.799Z,13.3
2024-02-16T13:39:52.721Z,13.2
2024-02-16T13:45:35.645Z,13.2
2024-02-16T13:50:07.793Z,13.2
2024-02-16T13:55:14.100Z,13.1
2024-02-16T14:00:10.554Z,13.1
2024-02-16T14:05:25.934Z,13.0
2024-02-16T14:10:33.217Z,13.0
2024-02-16T14:16:03.613Z,13.0
2024-02-16T14:21:29.325Z,13.0
2024-02-16T14:26:34.415Z,12.9
2024-02-16T14:31:30.770Z,12.9
2024-02-16T14:36:47.234Z,12.9
2024-02-16T14:41:53.633Z,12.9
2024-02-16T14:46:49.910Z,12.9
2024-02-16T14:52:26.406Z,12.8
2024-02-16T14:57:12.854Z,12.8
2024-02-16T15:02:09.159Z,12.8
2024-02-16T15:07:39.637Z,12.8
2024-02-16T15:12:32.031Z,12.8
2024-02-16T15:18:00.091Z,12.7
2024-02-16T15:23:43.043Z,12.7
2024-02-16T15:30:31.617Z,12.7
2024-02-16T15:35:38.995Z,12.7
2024-02-16T15:46:28.178Z,12.7
2024-02-16T15:52:00.758Z,12.7
2024-02-16T15:56:42.110Z,12.6
2024-02-16T16:02:27.181Z,12.6
2024-02-16T16:07:22.064Z,12.6
2024-02-16T16:12:09.382Z,12.6
2024-02-16T16:18:03.875Z,12.5
2024-02-16T16:23:11.172Z,12.5
2024-02-16T16:33:24.056Z,12.4
2024-02-16T16:39:30.729Z,12.4
2024-02-16T16:44:38.078Z,12.4
2024-02-16T16:50:18.520Z,12.4
2024-02-16T16:54:50.804Z,12.3
2024-02-16T16:59:58.488Z,12.3
2024-02-16T17:05:03.647Z,12.2
2024-02-16T17:10:09.960Z,12.2
2024-02-16T17:15:06.472Z,12.1
2024-02-16T17:25:29.226Z,12.0
2024-02-16T17:30:25.636Z,11.9
2024-02-16T17:35:41.986Z,11.8
2024-02-16T17:40:38.310Z,11.8
2024-02-16T17:51:40.399Z,11.8
2024-02-16T17:56:13.164Z,11.7
2024-02-16T18:01:20.652Z,11.7
2024-02-16T18:06:27.111Z,11.6
2024-02-16T18:11:33.582Z,11.6
2024-02-16T18:16:39.908Z,11.5
2024-02-16T18:21:46.293Z,11.5
2024-02-16T18:26:52.677Z,11.5
2024-02-16T18:31:59.056Z,11.4
2024-02-16T18:37:05.431Z,11.4
2024-02-16T18:42:11.880Z,11.4
2024-02-16T18:47:18.270Z,11.3
2024-02-16T18:52:24.625Z,11.3
2024-02-16T18:57:31.014Z,11.3
2024-02-16T19:03:11.530Z,11.2
2024-02-16T19:07:43.879Z,11.2
2024-02-16T19:12:50.214Z,11.2
2024-02-16T19:23:02.946Z,11.1
2024-02-16T19:28:09.291Z,11.1
2024-02-16T19:33:15.732Z,11.1
2024-02-16T19:38:22.231Z,11.1
2024-02-16T19:43:29.611Z,11.0
2024-02-16T19:48:35.385Z,11.0
2024-02-16T19:54:05.895Z,11.0
2024-02-16T19:58:48.147Z,11.0
2024-02-16T20:03:54.623Z,11.0
2024-02-16T20:10:57.322Z,10.9
2024-02-16T20:14:43.547Z,10.9
2024-02-16T20:19:51.043Z,10.9
2024-02-16T20:24:57.300Z,10.8
2024-02-16T20:30:27.801Z,10.8
2024-02-16T20:35:10.139Z,10.8
2024-02-16T20:40:06.456Z,10.7
2024-02-16T20:45:22.876Z,10.7
2024-02-16T21:05:12.636Z,11.3
2024-02-16T21:10:20.092Z,11.3
2024-02-16T21:15:27.714Z,11.3
2024-02-16T21:20:58.247Z,11.2
2024-02-16T21:25:40.520Z,11.0
2024-02-16T21:31:41.005Z,10.9
2024-02-16T21:42:01.823Z,10.8
2024-02-16T21:47:28.200Z,10.8
2024-02-16T21:52:50.544Z,10.7
2024-02-16T21:57:16.965Z,10.7
2024-02-16T22:02:24.266Z,10.7
2024-02-16T22:07:30.828Z,10.7
2024-02-16T22:12:37.113Z,10.7
2024-02-16T22:17:43.395Z,10.6
2024-02-16T22:22:49.944Z,10.6
2024-02-16T22:28:16.500Z,10.6
2024-02-16T22:33:03.117Z,10.6
2024-02-16T22:38:09.498Z,10.6
2024-02-16T22:43:15.889Z,10.6
2024-02-16T22:48:22.612Z,10.6
2024-02-16T23:01:42.058Z,10.7
2024-02-16T23:05:45.632Z,10.7
2024-02-16T23:11:19.773Z,10.7
2024-02-16T23:16:34.262Z,10.7
2024-02-16T23:22:15.764Z,10.7
2024-02-16T23:26:48.105Z,10.6
2024-02-16T23:31:58.467Z,10.5
2024-02-16T23:37:00.857Z,10.5
2024-02-16T23:42:07.282Z,10.4
2024-02-16T23:47:13.652Z,10.3
2024-02-16T23:52:20.067Z,10.2
2024-02-16T23:57:26.540Z,10.2
